createdAt,value
2023-03-06T00:00:33.526Z,83.20
2023-03-06T00:03:00.397Z,83.20
2023-03-06T00:05:27.502Z,83.10
2023-03-06T00:07:54.316Z,83.00
2023-03-06T00:10:27.276Z,83.00
2023-03-06T00:13:04.049Z,82.90
2023-03-06T00:15:31.528Z,82.90
2023-03-06T00:17:58.507Z,83.00
2023-03-06T00:20:26.332Z,83.10
2023-03-06T00:22:53.137Z,83.10
2023-03-06T00:25:21.472Z,83.10
2023-03-06T00:27:49.277Z,83.30
2023-03-06T00:30:19.487Z,83.50
2023-03-06T00:32:46.734Z,83.60
2023-03-06T00:35:14.583Z,83.60
2023-03-06T00:37:42.092Z,83.60
2023-03-06T00:40:11.935Z,83.60
2023-03-06T00:42:38.677Z,83.60
2023-03-06T00:45:05.821Z,83.70
2023-03-06T00:47:32.699Z,83.70
2023-03-06T00:49:59.528Z,83.80
2023-03-06T00:52:26.212Z,83.90
2023-03-06T00:54:52.999Z,84.00
2023-03-06T00:57:19.734Z,84.00
2023-03-06T00:59:46.481Z,84.20
2023-03-06T01:02:13.337Z,84.30
2023-03-06T01:04:40.176Z,84.50
2023-03-06T01:07:06.963Z,84.60
2023-03-06T01:09:33.708Z,84.70
2023-03-06T01:12:00.639Z,84.70
2023-03-06T01:14:27.855Z,84.70
2023-03-06T01:16:54.605Z,85.50
2023-03-06T01:19:21.394Z,84.80
2023-03-06T01:21:48.168Z,84.70
2023-03-06T01:24:14.854Z,84.70
2023-03-06T01:26:41.543Z,84.70
2023-03-06T01:29:08.486Z,84.70
2023-03-06T01:31:35.743Z,84.60
2023-03-06T01:34:02.499Z,84.60
2023-03-06T01:36:29.264Z,84.60
2023-03-06T01:38:56.036Z,84.50
2023-03-06T01:41:22.788Z,84.50
2023-03-06T01:43:49.730Z,84.50
2023-03-06T01:46:28.391Z,84.50
2023-03-06T01:48:56.411Z,84.50
2023-03-06T01:51:30.328Z,84.60
2023-03-06T01:54:00.236Z,84.80
2023-03-06T01:56:27.337Z,85.00
2023-03-06T01:58:54.336Z,85.30
2023-03-06T02:01:21.835Z,85.40
2023-03-06T02:03:49.929Z,85.70
2023-03-06T02:06:19.774Z,85.70
2023-03-06T02:08:51.836Z,85.80
2023-03-06T02:11:23.601Z,85.80
2023-03-06T02:13:53.695Z,85.90
2023-03-06T02:16:25.338Z,85.90
2023-03-06T02:18:53.412Z,85.90
2023-03-06T02:21:35.307Z,85.80
2023-03-06T02:24:14.248Z,85.80
2023-03-06T02:26:43.249Z,85.90
2023-03-06T02:29:10.207Z,85.90
2023-03-06T02:31:36.983Z,85.80
2023-03-06T02:34:28.713Z,85.90
2023-03-06T02:37:02.857Z,85.90
2023-03-06T02:39:33.122Z,86.00
2023-03-06T02:41:59.928Z,86.00
2023-03-06T02:44:27.481Z,86.10
2023-03-06T02:46:54.281Z,86.30
2023-03-06T02:49:21.056Z,86.30
2023-03-06T02:51:47.834Z,86.30
2023-03-06T02:54:14.655Z,87.20
2023-03-06T02:56:41.392Z,86.40
2023-03-06T02:59:08.148Z,86.40
2023-03-06T03:01:34.907Z,87.20
2023-03-06T03:04:01.652Z,86.30
2023-03-06T03:06:28.377Z,86.40
2023-03-06T03:08:55.202Z,86.60
2023-03-06T03:11:21.949Z,86.70
2023-03-06T03:13:48.667Z,87.70
2023-03-06T03:16:15.817Z,87.00
2023-03-06T03:18:44.594Z,87.00
2023-03-06T03:21:13.172Z,87.00
2023-03-06T03:23:40.116Z,87.10
2023-03-06T03:26:09.868Z,87.20
2023-03-06T03:28:36.783Z,87.20
2023-03-06T03:31:06.422Z,87.30
2023-03-06T03:33:33.930Z,87.30
2023-03-06T03:36:02.267Z,88.20
2023-03-06T03:38:29.284Z,87.50
2023-03-06T03:40:56.081Z,87.60
2023-03-06T03:43:22.767Z,87.60
2023-03-06T03:45:49.554Z,87.60
2023-03-06T03:48:16.205Z,87.60
2023-03-06T03:50:42.909Z,87.60
2023-03-06T03:53:09.917Z,87.60
2023-03-06T03:55:36.659Z,87.70
2023-03-06T03:58:03.445Z,87.60
2023-03-06T04:00:30.228Z,87.60
2023-03-06T04:02:57.033Z,87.60
2023-03-06T04:05:23.821Z,87.70
2023-03-06T04:07:50.491Z,87.80
2023-03-06T04:10:17.292Z,88.50
2023-03-06T04:12:44.029Z,87.80
2023-03-06T04:15:11.077Z,87.90
2023-03-06T04:17:38.150Z,87.90
2023-03-06T04:20:05.213Z,88.00
2023-03-06T04:22:31.926Z,88.00
2023-03-06T04:24:58.621Z,88.20
2023-03-06T04:27:25.397Z,88.20
2023-03-06T04:29:54.092Z,88.20
2023-03-06T04:32:21.644Z,88.30
2023-03-06T04:34:48.493Z,88.40
2023-03-06T04:37:24.601Z,88.50
2023-03-06T04:39:51.757Z,88.50
2023-03-06T04:42:18.929Z,88.60
2023-03-06T04:44:45.922Z,88.60
2023-03-06T04:47:13.219Z,88.80
2023-03-06T04:49:39.966Z,88.80
2023-03-06T04:52:07.338Z,88.90
2023-03-06T04:54:34.012Z,89.00
2023-03-06T04:57:00.911Z,89.10
2023-03-06T04:59:27.871Z,89.20
2023-03-06T05:01:54.780Z,89.40
2023-03-06T05:04:21.640Z,89.50
2023-03-06T05:06:48.312Z,89.50
2023-03-06T05:09:15.107Z,90.00
2023-03-06T05:11:41.811Z,90.00
2023-03-06T05:14:08.567Z,90.40
2023-03-06T05:16:35.346Z,90.20
2023-03-06T05:19:02.152Z,90.20
2023-03-06T05:21:28.831Z,90.20
2023-03-06T05:23:55.607Z,90.30
2023-03-06T05:26:22.373Z,90.30
2023-03-06T05:28:49.083Z,90.40
2023-03-06T05:31:16.367Z,90.50
2023-03-06T05:33:43.049Z,90.50
2023-03-06T05:36:09.960Z,90.60
2023-03-06T05:38:36.679Z,90.60
2023-03-06T05:41:03.611Z,90.70
2023-03-06T05:43:30.326Z,90.80
2023-03-06T05:46:04.759Z,90.80
2023-03-06T05:48:31.823Z,90.80
2023-03-06T05:50:59.582Z,90.90
2023-03-06T05:53:27.084Z,91.00
2023-03-06T05:56:06.081Z,91.00
2023-03-06T05:58:33.772Z,91.10
2023-03-06T06:01:01.259Z,91.10
2023-03-06T06:03:27.973Z,91.10
2023-03-06T06:05:54.728Z,91.20
2023-03-06T06:08:21.859Z,91.10
2023-03-06T06:10:49.615Z,91.20
2023-03-06T06:13:17.091Z,91.20
2023-03-06T06:15:43.797Z,91.20
2023-03-06T06:18:10.532Z,91.20
2023-03-06T06:20:38.296Z,91.30
2023-03-06T06:23:05.245Z,91.30
2023-03-06T06:25:32.860Z,91.30
2023-03-06T06:27:59.529Z,91.30
2023-03-06T06:30:26.274Z,91.40
2023-03-06T06:32:52.961Z,91.40
2023-03-06T06:35:19.737Z,91.40
2023-03-06T06:37:46.421Z,91.40
2023-03-06T06:40:13.371Z,91.40
2023-03-06T06:42:40.540Z,91.40
2023-03-06T06:45:08.982Z,91.50
2023-03-06T06:47:38.302Z,91.40
2023-03-06T06:50:05.663Z,91.50
2023-03-06T06:52:32.396Z,91.50
2023-03-06T06:54:59.091Z,91.50
2023-03-06T06:57:25.881Z,91.50
2023-03-06T06:59:54.116Z,91.40
2023-03-06T07:02:21.400Z,91.50
2023-03-06T07:05:02.353Z,91.50
2023-03-06T07:07:31.778Z,91.50
2023-03-06T07:09:58.505Z,91.40
2023-03-06T07:12:25.207Z,91.40
2023-03-06T07:14:51.910Z,91.40
2023-03-06T07:17:18.590Z,91.40
2023-03-06T07:19:45.341Z,91.40
2023-03-06T07:22:12.325Z,91.40
2023-03-06T07:24:39.007Z,91.30
2023-03-06T07:27:06.171Z,91.40
2023-03-06T07:29:34.484Z,91.30
2023-03-06T07:32:02.309Z,91.30
2023-03-06T07:34:29.409Z,91.30
2023-03-06T07:36:56.133Z,91.30
2023-03-06T07:39:22.852Z,91.20
2023-03-06T07:41:49.581Z,91.20
2023-03-06T07:44:16.301Z,91.20
2023-03-06T07:46:43.044Z,91.20
2023-03-06T07:49:09.841Z,91.20
2023-03-06T07:51:36.559Z,91.20
2023-03-06T07:54:03.393Z,91.10
2023-03-06T07:56:30.143Z,91.10
2023-03-06T07:58:57.233Z,91.10
2023-03-06T08:01:24.270Z,91.10
2023-03-06T08:03:51.305Z,91.10
2023-03-06T08:06:19.405Z,91.10
2023-03-06T08:08:47.791Z,91.10
2023-03-06T08:11:16.913Z,91.00
2023-03-06T08:13:44.594Z,91.00
2023-03-06T08:16:11.793Z,91.00
2023-03-06T08:18:39.861Z,90.90
2023-03-06T08:21:12.230Z,90.90
2023-03-06T08:23:39.773Z,90.90
2023-03-06T08:26:10.527Z,90.90
2023-03-06T08:28:37.293Z,90.80
2023-03-06T08:31:14.252Z,90.80
2023-03-06T08:33:41.382Z,90.80
2023-03-06T08:36:08.275Z,90.70
2023-03-06T08:38:35.022Z,90.60
2023-03-06T08:41:02.094Z,90.50
2023-03-06T08:43:28.860Z,90.90
2023-03-06T08:45:57.709Z,90.40
2023-03-06T08:48:25.162Z,90.40
2023-03-06T08:50:52.299Z,90.30
2023-03-06T08:53:19.368Z,90.40
2023-03-06T08:55:46.586Z,90.30
2023-03-06T08:58:13.545Z,90.20
2023-03-06T09:00:40.409Z,90.10
2023-03-06T09:03:07.182Z,90.00
2023-03-06T09:05:33.993Z,89.70
2023-03-06T09:08:00.734Z,89.30
2023-03-06T09:10:28.772Z,89.20
2023-03-06T09:12:55.690Z,89.00
2023-03-06T09:15:23.619Z,88.60
2023-03-06T09:17:50.936Z,88.40
2023-03-06T09:20:18.728Z,88.00
2023-03-06T09:22:45.978Z,87.90
2023-03-06T09:25:13.914Z,87.30
2023-03-06T09:27:41.208Z,86.80
2023-03-06T09:30:08.959Z,86.50
2023-03-06T09:32:35.729Z,86.30
2023-03-06T09:35:02.744Z,86.10
2023-03-06T09:37:29.434Z,85.20
2023-03-06T09:39:56.719Z,84.80
2023-03-06T09:42:24.004Z,84.50
2023-03-06T09:44:54.519Z,83.80
2023-03-06T09:47:51.892Z,83.30
2023-03-06T09:50:29.349Z,81.90
2023-03-06T09:53:02.653Z,81.50
2023-03-06T09:55:33.730Z,81.50
2023-03-06T09:58:07.437Z,81.10
2023-03-06T10:00:39.666Z,80.40
2023-03-06T10:03:18.478Z,78.30
2023-03-06T10:05:52.845Z,78.30
2023-03-06T10:08:40.924Z,79.10
2023-03-06T10:11:10.972Z,78.30
2023-03-06T10:13:43.976Z,77.80
2023-03-06T10:16:19.500Z,77.20
2023-03-06T10:18:46.395Z,76.20
2023-03-06T10:21:41.813Z,75.80
2023-03-06T10:24:32.664Z,75.90
2023-03-06T10:27:32.852Z,75.00
2023-03-06T10:30:32.681Z,73.20
2023-03-06T10:33:04.023Z,71.30
2023-03-06T10:35:48.521Z,73.10
2023-03-06T10:38:26.853Z,72.30
2023-03-06T10:41:16.960Z,71.60
2023-03-06T10:44:04.696Z,72.00
2023-03-06T10:46:31.459Z,72.50
2023-03-06T10:49:00.653Z,72.00
2023-03-06T10:51:30.097Z,72.30
2023-03-06T10:54:18.880Z,71.80
2023-03-06T10:56:47.259Z,72.10
2023-03-06T10:59:17.198Z,72.70
2023-03-06T11:02:06.380Z,73.10
2023-03-06T11:04:35.267Z,73.50
2023-03-06T11:07:24.805Z,73.00
2023-03-06T11:09:58.369Z,71.00
2023-03-06T11:12:33.845Z,71.10
2023-03-06T11:15:18.628Z,71.90
2023-03-06T11:18:04.461Z,72.20
2023-03-06T11:20:51.055Z,71.80
2023-03-06T11:23:26.912Z,72.30
2023-03-06T11:26:20.136Z,72.30
2023-03-06T11:28:55.625Z,72.40
2023-03-06T11:31:26.962Z,72.00
2023-03-06T11:34:02.404Z,72.20
2023-03-06T11:36:58.081Z,72.10
2023-03-06T11:39:45.088Z,71.70
2023-03-06T11:42:18.578Z,72.00
2023-03-06T11:45:02.907Z,72.20
2023-03-06T11:47:36.734Z,71.90
2023-03-06T11:50:30.994Z,71.60
2023-03-06T11:53:00.407Z,71.20
2023-03-06T11:55:42.468Z,70.80
2023-03-06T11:58:40.629Z,70.80
2023-03-06T12:01:26.632Z,70.80
2023-03-06T12:04:26.073Z,71.10
2023-03-06T12:07:35.451Z,71.30
2023-03-06T12:10:20.538Z,71.50
2023-03-06T12:13:05.433Z,71.60
2023-03-06T12:15:50.309Z,71.30
2023-03-06T12:18:29.080Z,71.70
2023-03-06T12:21:04.238Z,71.80
2023-03-06T12:23:59.024Z,72.00
2023-03-06T12:26:42.000Z,72.10
2023-03-06T12:29:50.552Z,72.40
2023-03-06T12:32:49.520Z,72.20
2023-03-06T12:35:28.013Z,72.00
2023-03-06T12:38:03.324Z,72.30
2023-03-06T12:40:45.359Z,72.70
2023-03-06T12:43:34.023Z,72.90
2023-03-06T12:46:10.759Z,73.10
2023-03-06T12:48:41.333Z,72.60
2023-03-06T12:51:11.362Z,72.20
2023-03-06T12:53:39.717Z,72.30
2023-03-06T12:56:07.356Z,71.90
2023-03-06T12:58:36.167Z,71.90
2023-03-06T13:01:20.012Z,71.90
2023-03-06T13:04:02.687Z,72.20
2023-03-06T13:06:58.868Z,72.00
2023-03-06T13:09:50.225Z,72.90
2023-03-06T13:12:38.563Z,72.30
2023-03-06T13:15:33.315Z,72.60
2023-03-06T13:18:00.932Z,72.40
2023-03-06T13:20:59.934Z,72.30
2023-03-06T13:23:29.801Z,72.10
2023-03-06T13:26:10.699Z,72.60
2023-03-06T13:28:50.077Z,72.90
2023-03-06T13:31:29.378Z,72.70
2023-03-06T13:33:59.565Z,72.30
2023-03-06T13:36:39.626Z,72.80
2023-03-06T13:39:11.487Z,73.20
2023-03-06T13:41:55.346Z,73.00
2023-03-06T13:44:25.162Z,72.90
2023-03-06T13:47:03.667Z,73.00
2023-03-06T13:49:30.767Z,72.70
2023-03-06T13:52:10.527Z,73.50
2023-03-06T13:55:03.362Z,72.30
2023-03-06T13:57:36.115Z,72.30
2023-03-06T14:00:21.498Z,71.90
2023-03-06T14:02:55.112Z,71.30
2023-03-06T14:05:23.011Z,71.30
2023-03-06T14:08:08.493Z,71.20
2023-03-06T14:10:36.558Z,71.30
2023-03-06T14:13:07.954Z,71.60
2023-03-06T14:15:44.606Z,71.60
2023-03-06T14:18:38.331Z,71.70
2023-03-06T14:21:11.951Z,71.70
2023-03-06T14:23:43.391Z,71.90
2023-03-06T14:26:19.088Z,71.50
2023-03-06T14:29:02.546Z,71.40
2023-03-06T14:31:33.267Z,71.40
2023-03-06T14:34:05.573Z,71.20
2023-03-06T14:36:47.621Z,71.00
2023-03-06T14:39:21.882Z,70.90
2023-03-06T14:41:48.658Z,70.70
2023-03-06T14:44:21.682Z,70.40
2023-03-06T14:46:54.985Z,70.20
2023-03-06T14:49:24.080Z,69.50
2023-03-06T14:51:54.600Z,68.60
2023-03-06T14:54:34.104Z,67.70
2023-03-06T14:57:06.032Z,67.30
2023-03-06T14:59:43.317Z,66.90
2023-03-06T15:02:15.528Z,66.80
2023-03-06T15:05:03.971Z,66.20
2023-03-06T15:07:32.501Z,65.90
2023-03-06T15:10:00.238Z,65.30
2023-03-06T15:12:27.166Z,64.80
2023-03-06T15:15:04.595Z,64.50
2023-03-06T15:17:53.496Z,64.40
2023-03-06T15:20:44.163Z,64.00
2023-03-06T15:23:26.464Z,63.80
2023-03-06T15:26:03.572Z,64.20
2023-03-06T15:28:39.507Z,64.60
2023-03-06T15:31:23.433Z,64.60
2023-03-06T15:34:09.254Z,64.60
2023-03-06T15:36:48.181Z,64.50
2023-03-06T15:39:29.024Z,64.60
2023-03-06T15:42:07.499Z,64.50
2023-03-06T15:44:34.336Z,65.00
2023-03-06T15:47:08.704Z,65.50
2023-03-06T15:49:38.176Z,66.00
2023-03-06T15:52:09.027Z,66.60
2023-03-06T15:54:36.732Z,67.30
2023-03-06T15:57:07.280Z,67.90
2023-03-06T15:59:42.472Z,68.50
2023-03-06T16:02:23.257Z,69.30
2023-03-06T16:04:50.644Z,70.20
2023-03-06T16:07:17.520Z,70.70
2023-03-06T16:09:44.753Z,71.30
2023-03-06T16:12:20.273Z,72.10
2023-03-06T16:14:47.923Z,72.90
2023-03-06T16:17:15.437Z,73.60
2023-03-06T16:19:43.086Z,74.00
2023-03-06T16:22:09.845Z,74.90
2023-03-06T16:24:37.218Z,75.30
2023-03-06T16:27:04.650Z,75.60
2023-03-06T16:29:31.786Z,76.00
2023-03-06T16:31:58.996Z,76.40
2023-03-06T16:34:25.803Z,77.10
2023-03-06T16:36:53.038Z,77.30
2023-03-06T16:39:22.664Z,77.70
2023-03-06T16:41:49.930Z,78.10
2023-03-06T16:44:16.819Z,78.50
2023-03-06T16:46:46.175Z,78.90
2023-03-06T16:49:24.252Z,79.10
2023-03-06T16:51:52.782Z,79.40
2023-03-06T16:54:20.052Z,79.60
2023-03-06T16:56:46.847Z,80.00
2023-03-06T16:59:13.935Z,80.20
2023-03-06T17:01:43.063Z,80.30
2023-03-06T17:04:10.276Z,80.50
2023-03-06T17:06:37.094Z,80.50
2023-03-06T17:09:04.540Z,80.80
2023-03-06T17:11:31.302Z,81.20
2023-03-06T17:13:58.064Z,81.30
2023-03-06T17:16:24.779Z,81.30
2023-03-06T17:18:52.409Z,81.40
2023-03-06T17:21:19.333Z,81.60
2023-03-06T17:23:46.422Z,81.60
2023-03-06T17:26:21.114Z,81.60
2023-03-06T17:28:48.361Z,81.70
2023-03-06T17:31:16.617Z,81.70
2023-03-06T17:33:44.218Z,81.70
2023-03-06T17:36:11.738Z,81.50
2023-03-06T17:38:38.522Z,81.30
2023-03-06T17:41:06.917Z,81.20
2023-03-06T17:43:33.973Z,80.90
2023-03-06T17:46:08.974Z,80.70
2023-03-06T17:48:36.171Z,80.50
2023-03-06T17:51:03.590Z,80.30
2023-03-06T17:53:30.285Z,80.20
2023-03-06T17:55:58.180Z,80.20
2023-03-06T17:58:26.156Z,80.20
2023-03-06T18:00:53.048Z,80.30
2023-03-06T18:03:19.775Z,80.30
2023-03-06T18:05:46.474Z,80.40
2023-03-06T18:08:13.433Z,80.40
2023-03-06T18:10:43.567Z,80.50
2023-03-06T18:13:10.710Z,80.60
2023-03-06T18:15:41.305Z,80.70
2023-03-06T18:18:08.882Z,81.00
2023-03-06T18:20:41.304Z,81.30
2023-03-06T18:23:08.612Z,81.40
2023-03-06T18:25:35.619Z,81.50
2023-03-06T18:28:02.320Z,81.60
2023-03-06T18:30:29.230Z,81.80
2023-03-06T18:32:55.909Z,82.10
2023-03-06T18:35:22.678Z,82.30
2023-03-06T18:37:49.408Z,82.40
2023-03-06T18:40:16.251Z,82.50
2023-03-06T18:42:43.016Z,82.70
2023-03-06T18:45:10.987Z,82.90
2023-03-06T18:47:37.660Z,83.20
2023-03-06T18:50:04.937Z,83.30
2023-03-06T18:52:33.086Z,83.40
2023-03-06T18:54:59.820Z,83.60
2023-03-06T18:57:29.219Z,83.70
2023-03-06T18:59:56.793Z,83.80
2023-03-06T19:02:23.556Z,83.90
2023-03-06T19:04:50.264Z,83.80
2023-03-06T19:07:17.162Z,83.80
2023-03-06T19:09:44.376Z,84.00
2023-03-06T19:12:11.545Z,84.10
2023-03-06T19:14:38.309Z,84.20
2023-03-06T19:17:05.154Z,84.40
2023-03-06T19:19:32.060Z,84.70
2023-03-06T19:21:59.436Z,84.70
2023-03-06T19:24:26.616Z,84.90
2023-03-06T19:26:53.426Z,85.10
2023-03-06T19:29:20.236Z,85.10
2023-03-06T19:31:47.022Z,85.30
2023-03-06T19:34:13.749Z,85.50
2023-03-06T19:36:40.956Z,85.60
2023-03-06T19:39:08.187Z,85.60
2023-03-06T19:41:35.279Z,85.80
2023-03-06T19:44:03.345Z,86.00
2023-03-06T19:46:31.677Z,86.20
2023-03-06T19:49:05.641Z,86.30
2023-03-06T19:51:32.391Z,86.50
2023-03-06T19:53:59.088Z,86.60
2023-03-06T19:56:28.845Z,86.80
2023-03-06T19:58:56.036Z,87.00
2023-03-06T20:01:25.009Z,87.10
2023-03-06T20:03:58.415Z,87.30
2023-03-06T20:06:31.183Z,87.40
2023-03-06T20:08:58.103Z,87.60
2023-03-06T20:11:29.806Z,87.70
2023-03-06T20:14:01.772Z,88.10
2023-03-06T20:16:29.672Z,88.20
2023-03-06T20:18:58.657Z,88.40
2023-03-06T20:21:26.708Z,88.70
2023-03-06T20:23:54.849Z,88.70
2023-03-06T20:26:23.001Z,88.90
2023-03-06T20:28:49.954Z,89.20
2023-03-06T20:31:19.489Z,89.40
2023-03-06T20:33:48.023Z,89.50
2023-03-06T20:36:36.075Z,89.80
2023-03-06T20:39:08.967Z,90.00
2023-03-06T20:41:36.266Z,90.10
2023-03-06T20:44:04.885Z,90.20
2023-03-06T20:46:32.820Z,90.20
2023-03-06T20:49:00.015Z,90.20
2023-03-06T20:51:36.165Z,90.30
2023-03-06T20:54:03.127Z,90.50
2023-03-06T20:56:32.712Z,90.60
2023-03-06T20:58:59.782Z,90.70
2023-03-06T21:01:35.366Z,90.70
2023-03-06T21:04:04.510Z,90.80
2023-03-06T21:06:31.737Z,91.20
2023-03-06T21:09:00.131Z,90.90
2023-03-06T21:11:27.436Z,91.00
2023-03-06T21:13:54.336Z,91.10
2023-03-06T21:16:24.648Z,91.10
2023-03-06T21:18:51.982Z,91.20
2023-03-06T21:21:21.326Z,91.40
2023-03-06T21:23:49.021Z,91.30
2023-03-06T21:26:18.569Z,91.30
2023-03-06T21:28:45.717Z,91.30
2023-03-06T21:31:14.903Z,91.50
2023-03-06T21:33:42.731Z,91.60
2023-03-06T21:36:10.368Z,91.60
2023-03-06T21:38:37.219Z,91.70
2023-03-06T21:41:28.456Z,91.70
2023-03-06T21:43:57.336Z,91.90
2023-03-06T21:46:24.858Z,91.90
2023-03-06T21:48:51.682Z,92.10
2023-03-06T21:51:21.192Z,92.10
2023-03-06T21:53:48.495Z,92.20
2023-03-06T21:56:17.809Z,92.20
2023-03-06T21:58:45.538Z,92.30
2023-03-06T22:01:16.005Z,92.30
2023-03-06T22:03:42.884Z,92.40
2023-03-06T22:06:10.545Z,92.50
2023-03-06T22:08:37.302Z,92.50
2023-03-06T22:11:12.559Z,92.70
2023-03-06T22:13:39.927Z,92.70
2023-03-06T22:16:07.662Z,92.60
2023-03-06T22:18:35.510Z,92.70
2023-03-06T22:21:14.192Z,92.70
2023-03-06T22:23:41.128Z,92.70
2023-03-06T22:26:11.198Z,92.60
2023-03-06T22:28:38.780Z,92.60
2023-03-06T22:31:08.766Z,92.50
2023-03-06T22:33:36.064Z,92.50
2023-03-06T22:36:08.232Z,92.40
2023-03-06T22:38:37.194Z,92.40
2023-03-06T22:41:04.725Z,92.40
2023-03-06T22:43:32.640Z,92.40
2023-03-06T22:46:08.300Z,92.70
2023-03-06T22:48:35.429Z,92.30
2023-03-06T22:51:05.166Z,92.30
2023-03-06T22:53:32.703Z,92.20
2023-03-06T22:56:00.756Z,92.20
2023-03-06T22:58:34.194Z,92.20
2023-03-06T23:01:09.810Z,92.20
2023-03-06T23:03:38.139Z,92.20
2023-03-06T23:06:14.403Z,92.20
2023-03-06T23:08:41.667Z,92.20
2023-03-06T23:11:13.746Z,92.20
2023-03-06T23:13:40.494Z,92.20
2023-03-06T23:16:09.176Z,92.20
2023-03-06T23:18:37.170Z,92.20
2023-03-06T23:21:13.012Z,92.30
2023-03-06T23:23:40.337Z,92.20
2023-03-06T23:26:08.813Z,92.30
2023-03-06T23:28:35.749Z,92.40
2023-03-06T23:31:10.758Z,92.40
2023-03-06T23:33:38.794Z,92.40
2023-03-06T23:36:08.189Z,92.40
2023-03-06T23:38:35.440Z,92.40
2023-03-06T23:41:04.331Z,92.40
2023-03-06T23:43:32.110Z,92.40
2023-03-06T23:45:59.611Z,92.40
2023-03-06T23:48:27.238Z,92.40
2023-03-06T23:50:54.080Z,92.40
2023-03-06T23:53:21.018Z,92.40
2023-03-06T23:55:49.620Z,92.50
2023-03-06T23:58:18.036Z,92.50
